sensor_id;sensor_type;location;lat;lon;timestamp;P1;durP1;ratioP1;P2;durP2;ratioP2
42988;SDS011;28622;43.716;20.668;2022-08-24T00:01:02;7.15;;;3.28;;
42988;SDS011;28622;43.716;20.668;2022-08-24T00:03:30;6.32;;;2.85;;
42988;SDS011;28622;43.716;20.668;2022-08-24T00:05:56;7.25;;;3.83;;
42988;SDS011;28622;43.716;20.668;2022-08-24T00:08:22;6.30;;;3.08;;
42988;SDS011;28622;43.716;20.668;2022-08-24T00:10:48;8.07;;;3.60;;
42988;SDS011;28622;43.716;20.668;2022-08-24T00:13:14;4.50;;;3.05;;
42988;SDS011;28622;43.716;20.668;2022-08-24T00:15:40;7.20;;;3.55;;
42988;SDS011;28622;43.716;20.668;2022-08-24T00:18:07;7.95;;;3.20;;
42988;SDS011;28622;43.716;20.668;2022-08-24T00:20:33;6.45;;;2.95;;
42988;SDS011;28622;43.716;20.668;2022-08-24T00:22:59;7.28;;;3.45;;
42988;SDS011;28622;43.716;20.668;2022-08-24T00:25:24;5.88;;;3.63;;
42988;SDS011;28622;43.716;20.668;2022-08-24T00:27:50;8.07;;;3.67;;
42988;SDS011;28622;43.716;20.668;2022-08-24T00:30:17;6.55;;;3.40;;
42988;SDS011;28622;43.716;20.668;2022-08-24T00:32:44;4.95;;;2.97;;
42988;SDS011;28622;43.716;20.668;2022-08-24T00:35:11;9.43;;;4.00;;
42988;SDS011;28622;43.716;20.668;2022-08-24T00:37:38;8.13;;;3.58;;
42988;SDS011;28622;43.716;20.668;2022-08-24T00:40:10;6.60;;;3.28;;
42988;SDS011;28622;43.716;20.668;2022-08-24T00:42:38;6.40;;;3.30;;
42988;SDS011;28622;43.716;20.668;2022-08-24T00:45:05;8.70;;;4.05;;
42988;SDS011;28622;43.716;20.668;2022-08-24T00:47:47;6.88;;;3.72;;
42988;SDS011;28622;43.716;20.668;2022-08-24T00:50:28;3.90;;;2.90;;
42988;SDS011;28622;43.716;20.668;2022-08-24T00:53:07;5.15;;;2.60;;
42988;SDS011;28622;43.716;20.668;2022-08-24T00:55:42;4.53;;;2.83;;
42988;SDS011;28622;43.716;20.668;2022-08-24T00:58:15;7.55;;;3.70;;
42988;SDS011;28622;43.716;20.668;2022-08-24T01:00:46;8.52;;;3.80;;
42988;SDS011;28622;43.716;20.668;2022-08-24T01:03:15;9.73;;;3.67;;
42988;SDS011;28622;43.716;20.668;2022-08-24T01:05:41;6.68;;;3.00;;
42988;SDS011;28622;43.716;20.668;2022-08-24T01:08:09;7.82;;;3.50;;
42988;SDS011;28622;43.716;20.668;2022-08-24T01:10:37;5.85;;;2.92;;
42988;SDS011;28622;43.716;20.668;2022-08-24T01:13:07;7.13;;;3.40;;
42988;SDS011;28622;43.716;20.668;2022-08-24T01:15:36;6.70;;;3.13;;
42988;SDS011;28622;43.716;20.668;2022-08-24T01:18:05;6.65;;;2.97;;
42988;SDS011;28622;43.716;20.668;2022-08-24T01:23:57;5.57;;;3.30;;
42988;SDS011;28622;43.716;20.668;2022-08-24T01:28:59;6.35;;;3.80;;
42988;SDS011;28622;43.716;20.668;2022-08-24T01:31:29;4.93;;;3.13;;
42988;SDS011;28622;43.716;20.668;2022-08-24T01:33:55;8.85;;;3.25;;
42988;SDS011;28622;43.716;20.668;2022-08-24T01:36:30;7.63;;;3.50;;
42988;SDS011;28622;43.716;20.668;2022-08-24T01:39:09;9.27;;;3.17;;
42988;SDS011;28622;43.716;20.668;2022-08-24T01:41:41;6.82;;;3.00;;
42988;SDS011;28622;43.716;20.668;2022-08-24T01:44:08;5.18;;;3.05;;
42988;SDS011;28622;43.716;20.668;2022-08-24T01:46:34;7.85;;;3.53;;
42988;SDS011;28622;43.716;20.668;2022-08-24T01:49:00;6.22;;;3.08;;
42988;SDS011;28622;43.716;20.668;2022-08-24T01:51:29;5.68;;;3.22;;
42988;SDS011;28622;43.716;20.668;2022-08-24T01:53:57;11.18;;;3.65;;
42988;SDS011;28622;43.716;20.668;2022-08-24T01:56:26;8.60;;;3.53;;
42988;SDS011;28622;43.716;20.668;2022-08-24T01:58:52;5.72;;;3.50;;
42988;SDS011;28622;43.716;20.668;2022-08-24T02:01:18;7.28;;;3.35;;
42988;SDS011;28622;43.716;20.668;2022-08-24T02:03:45;7.45;;;3.90;;
42988;SDS011;28622;43.716;20.668;2022-08-24T02:06:11;7.47;;;3.38;;
42988;SDS011;28622;43.716;20.668;2022-08-24T02:08:37;5.72;;;3.38;;
42988;SDS011;28622;43.716;20.668;2022-08-24T02:11:06;5.72;;;2.33;;
42988;SDS011;28622;43.716;20.668;2022-08-24T02:13:33;6.15;;;3.15;;
42988;SDS011;28622;43.716;20.668;2022-08-24T02:16:01;5.45;;;2.83;;
42988;SDS011;28622;43.716;20.668;2022-08-24T02:18:26;6.82;;;3.40;;
42988;SDS011;28622;43.716;20.668;2022-08-24T02:20:53;5.88;;;3.00;;
42988;SDS011;28622;43.716;20.668;2022-08-24T02:23:19;6.05;;;3.25;;
42988;SDS011;28622;43.716;20.668;2022-08-24T02:25:45;4.53;;;2.58;;
42988;SDS011;28622;43.716;20.668;2022-08-24T02:28:11;6.20;;;3.40;;
42988;SDS011;28622;43.716;20.668;2022-08-24T02:30:38;5.20;;;2.85;;
42988;SDS011;28622;43.716;20.668;2022-08-24T02:33:04;6.28;;;3.10;;
42988;SDS011;28622;43.716;20.668;2022-08-24T02:35:30;9.38;;;3.83;;
42988;SDS011;28622;43.716;20.668;2022-08-24T02:37:56;5.85;;;3.47;;
42988;SDS011;28622;43.716;20.668;2022-08-24T02:40:22;3.28;;;2.83;;
42988;SDS011;28622;43.716;20.668;2022-08-24T02:42:48;4.93;;;3.17;;
42988;SDS011;28622;43.716;20.668;2022-08-24T02:45:14;6.60;;;3.20;;
42988;SDS011;28622;43.716;20.668;2022-08-24T02:47:40;8.38;;;3.63;;
42988;SDS011;28622;43.716;20.668;2022-08-24T02:50:09;5.40;;;3.08;;
42988;SDS011;28622;43.716;20.668;2022-08-24T02:52:37;8.35;;;3.75;;
42988;SDS011;28622;43.716;20.668;2022-08-24T02:55:04;5.60;;;3.45;;
42988;SDS011;28622;43.716;20.668;2022-08-24T02:57:32;7.50;;;3.40;;
42988;SDS011;28622;43.716;20.668;2022-08-24T02:59:57;6.07;;;3.75;;
42988;SDS011;28622;43.716;20.668;2022-08-24T03:02:26;6.03;;;3.40;;
42988;SDS011;28622;43.716;20.668;2022-08-24T03:04:52;6.63;;;3.22;;
42988;SDS011;28622;43.716;20.668;2022-08-24T03:07:18;5.22;;;3.38;;
42988;SDS011;28622;43.716;20.668;2022-08-24T03:09:44;6.72;;;3.38;;
42988;SDS011;28622;43.716;20.668;2022-08-24T03:12:10;6.00;;;3.35;;
42988;SDS011;28622;43.716;20.668;2022-08-24T03:14:36;4.47;;;3.15;;
42988;SDS011;28622;43.716;20.668;2022-08-24T03:17:02;5.38;;;2.90;;
42988;SDS011;28622;43.716;20.668;2022-08-24T03:19:28;6.50;;;3.92;;
42988;SDS011;28622;43.716;20.668;2022-08-24T03:21:54;7.65;;;3.80;;
42988;SDS011;28622;43.716;20.668;2022-08-24T03:24:20;6.28;;;3.40;;
42988;SDS011;28622;43.716;20.668;2022-08-24T03:26:46;4.80;;;2.95;;
42988;SDS011;28622;43.716;20.668;2022-08-24T03:29:12;6.35;;;3.63;;
42988;SDS011;28622;43.716;20.668;2022-08-24T03:31:39;4.80;;;2.85;;
42988;SDS011;28622;43.716;20.668;2022-08-24T03:34:05;5.65;;;3.05;;
42988;SDS011;28622;43.716;20.668;2022-08-24T03:36:30;5.55;;;3.08;;
42988;SDS011;28622;43.716;20.668;2022-08-24T03:38:56;5.63;;;3.25;;
42988;SDS011;28622;43.716;20.668;2022-08-24T03:41:22;7.00;;;3.58;;
42988;SDS011;28622;43.716;20.668;2022-08-24T03:43:48;5.15;;;2.67;;
42988;SDS011;28622;43.716;20.668;2022-08-24T03:46:15;9.13;;;3.55;;
42988;SDS011;28622;43.716;20.668;2022-08-24T03:48:44;6.82;;;3.08;;
42988;SDS011;28622;43.716;20.668;2022-08-24T03:51:11;6.13;;;3.20;;
42988;SDS011;28622;43.716;20.668;2022-08-24T03:53:39;5.43;;;2.58;;
42988;SDS011;28622;43.716;20.668;2022-08-24T03:56:05;5.10;;;2.85;;
42988;SDS011;28622;43.716;20.668;2022-08-24T03:58:32;10.13;;;4.38;;
42988;SDS011;28622;43.716;20.668;2022-08-24T04:01:00;7.30;;;3.28;;
42988;SDS011;28622;43.716;20.668;2022-08-24T04:03:27;7.50;;;3.78;;
42988;SDS011;28622;43.716;20.668;2022-08-24T04:05:53;14.85;;;3.55;;
42988;SDS011;28622;43.716;20.668;2022-08-24T04:08:19;5.72;;;3.53;;
42988;SDS011;28622;43.716;20.668;2022-08-24T04:10:45;6.68;;;3.38;;
42988;SDS011;28622;43.716;20.668;2022-08-24T04:13:12;4.68;;;3.03;;
42988;SDS011;28622;43.716;20.668;2022-08-24T04:15:40;4.90;;;3.17;;
42988;SDS011;28622;43.716;20.668;2022-08-24T04:18:07;4.68;;;3.10;;
42988;SDS011;28622;43.716;20.668;2022-08-24T04:20:40;5.10;;;2.95;;
42988;SDS011;28622;43.716;20.668;2022-08-24T04:23:11;7.05;;;3.50;;
42988;SDS011;28622;43.716;20.668;2022-08-24T04:25:38;7.35;;;3.72;;
42988;SDS011;28622;43.716;20.668;2022-08-24T04:28:09;5.13;;;2.92;;
42988;SDS011;28622;43.716;20.668;2022-08-24T04:30:42;7.70;;;3.90;;
42988;SDS011;28622;43.716;20.668;2022-08-24T04:33:10;5.78;;;3.00;;
42988;SDS011;28622;43.716;20.668;2022-08-24T04:35:41;6.68;;;3.25;;
42988;SDS011;28622;43.716;20.668;2022-08-24T04:40:37;5.88;;;2.70;;
42988;SDS011;28622;43.716;20.668;2022-08-24T04:43:05;7.28;;;3.35;;
42988;SDS011;28622;43.716;20.668;2022-08-24T04:45:32;7.28;;;3.28;;
42988;SDS011;28622;43.716;20.668;2022-08-24T04:48:02;9.93;;;3.83;;
42988;SDS011;28622;43.716;20.668;2022-08-24T04:50:28;8.07;;;3.55;;
42988;SDS011;28622;43.716;20.668;2022-08-24T04:52:53;6.57;;;3.53;;
42988;SDS011;28622;43.716;20.668;2022-08-24T04:55:22;9.93;;;4.25;;
42988;SDS011;28622;43.716;20.668;2022-08-24T04:57:48;5.10;;;3.33;;
42988;SDS011;28622;43.716;20.668;2022-08-24T05:00:14;8.82;;;3.83;;
42988;SDS011;28622;43.716;20.668;2022-08-24T05:02:40;7.70;;;3.00;;
42988;SDS011;28622;43.716;20.668;2022-08-24T05:05:09;5.38;;;3.35;;
42988;SDS011;28622;43.716;20.668;2022-08-24T05:07:35;6.50;;;3.80;;
42988;SDS011;28622;43.716;20.668;2022-08-24T05:10:02;9.10;;;3.80;;
42988;SDS011;28622;43.716;20.668;2022-08-24T05:12:29;5.68;;;3.28;;
42988;SDS011;28622;43.716;20.668;2022-08-24T05:14:56;7.43;;;3.60;;
42988;SDS011;28622;43.716;20.668;2022-08-24T05:17:23;6.78;;;3.45;;
42988;SDS011;28622;43.716;20.668;2022-08-24T05:19:49;6.47;;;3.45;;
42988;SDS011;28622;43.716;20.668;2022-08-24T05:22:15;6.30;;;3.97;;
42988;SDS011;28622;43.716;20.668;2022-08-24T05:24:41;6.70;;;3.67;;
42988;SDS011;28622;43.716;20.668;2022-08-24T05:27:07;5.97;;;3.63;;
42988;SDS011;28622;43.716;20.668;2022-08-24T05:29:36;5.68;;;3.10;;
42988;SDS011;28622;43.716;20.668;2022-08-24T05:32:02;10.93;;;4.50;;
42988;SDS011;28622;43.716;20.668;2022-08-24T05:34:28;7.53;;;3.97;;
42988;SDS011;28622;43.716;20.668;2022-08-24T05:36:53;7.07;;;3.80;;
42988;SDS011;28622;43.716;20.668;2022-08-24T05:39:19;8.07;;;4.35;;
42988;SDS011;28622;43.716;20.668;2022-08-24T05:41:46;6.30;;;3.22;;
42988;SDS011;28622;43.716;20.668;2022-08-24T05:44:12;6.70;;;4.05;;
42988;SDS011;28622;43.716;20.668;2022-08-24T05:46:39;6.28;;;3.78;;
42988;SDS011;28622;43.716;20.668;2022-08-24T05:49:07;6.40;;;3.45;;
42988;SDS011;28622;43.716;20.668;2022-08-24T05:51:33;5.65;;;3.45;;
42988;SDS011;28622;43.716;20.668;2022-08-24T05:53:59;7.10;;;3.97;;
42988;SDS011;28622;43.716;20.668;2022-08-24T05:56:25;6.60;;;3.55;;
42988;SDS011;28622;43.716;20.668;2022-08-24T05:58:52;4.68;;;3.08;;
42988;SDS011;28622;43.716;20.668;2022-08-24T06:01:19;5.25;;;3.42;;
42988;SDS011;28622;43.716;20.668;2022-08-24T06:03:47;7.50;;;3.03;;
42988;SDS011;28622;43.716;20.668;2022-08-24T06:06:14;6.78;;;3.65;;
42988;SDS011;28622;43.716;20.668;2022-08-24T06:08:42;4.68;;;2.65;;
42988;SDS011;28622;43.716;20.668;2022-08-24T06:11:11;4.05;;;2.78;;
42988;SDS011;28622;43.716;20.668;2022-08-24T06:13:43;5.32;;;2.90;;
42988;SDS011;28622;43.716;20.668;2022-08-24T06:16:10;6.35;;;3.50;;
42988;SDS011;28622;43.716;20.668;2022-08-24T06:18:37;4.78;;;2.75;;
42988;SDS011;28622;43.716;20.668;2022-08-24T06:21:11;5.55;;;3.25;;
42988;SDS011;28622;43.716;20.668;2022-08-24T06:23:39;7.82;;;3.30;;
42988;SDS011;28622;43.716;20.668;2022-08-24T06:26:05;6.55;;;3.35;;
42988;SDS011;28622;43.716;20.668;2022-08-24T06:28:51;6.70;;;2.78;;
42988;SDS011;28622;43.716;20.668;2022-08-24T06:31:18;5.38;;;3.10;;
42988;SDS011;28622;43.716;20.668;2022-08-24T06:33:44;4.70;;;2.97;;
42988;SDS011;28622;43.716;20.668;2022-08-24T06:36:10;5.45;;;3.45;;
42988;SDS011;28622;43.716;20.668;2022-08-24T06:38:36;6.20;;;2.78;;
42988;SDS011;28622;43.716;20.668;2022-08-24T06:41:02;5.75;;;3.08;;
42988;SDS011;28622;43.716;20.668;2022-08-24T06:43:28;7.00;;;2.97;;
42988;SDS011;28622;43.716;20.668;2022-08-24T06:45:54;6.32;;;3.50;;
42988;SDS011;28622;43.716;20.668;2022-08-24T06:48:21;5.38;;;2.67;;
42988;SDS011;28622;43.716;20.668;2022-08-24T06:50:47;5.38;;;2.42;;
42988;SDS011;28622;43.716;20.668;2022-08-24T06:53:13;5.90;;;3.00;;
42988;SDS011;28622;43.716;20.668;2022-08-24T06:55:43;4.60;;;2.60;;
42988;SDS011;28622;43.716;20.668;2022-08-24T06:58:20;9.18;;;3.75;;
42988;SDS011;28622;43.716;20.668;2022-08-24T07:00:46;4.20;;;2.78;;
42988;SDS011;28622;43.716;20.668;2022-08-24T07:03:13;7.25;;;3.28;;
42988;SDS011;28622;43.716;20.668;2022-08-24T07:05:39;4.32;;;2.58;;
42988;SDS011;28622;43.716;20.668;2022-08-24T07:08:06;5.10;;;3.03;;
42988;SDS011;28622;43.716;20.668;2022-08-24T07:10:32;6.07;;;2.72;;
42988;SDS011;28622;43.716;20.668;2022-08-24T07:12:59;7.10;;;3.20;;
42988;SDS011;28622;43.716;20.668;2022-08-24T07:15:25;5.55;;;3.03;;
42988;SDS011;28622;43.716;20.668;2022-08-24T07:17:51;5.72;;;3.28;;
42988;SDS011;28622;43.716;20.668;2022-08-24T07:20:17;4.85;;;2.88;;
42988;SDS011;28622;43.716;20.668;2022-08-24T07:22:43;5.40;;;2.85;;
42988;SDS011;28622;43.716;20.668;2022-08-24T07:25:10;5.65;;;2.53;;
42988;SDS011;28622;43.716;20.668;2022-08-24T07:27:36;6.25;;;3.47;;
42988;SDS011;28622;43.716;20.668;2022-08-24T07:30:04;4.72;;;2.70;;
42988;SDS011;28622;43.716;20.668;2022-08-24T07:32:31;4.25;;;2.72;;
42988;SDS011;28622;43.716;20.668;2022-08-24T07:34:57;9.75;;;3.15;;
42988;SDS011;28622;43.716;20.668;2022-08-24T07:37:24;6.50;;;2.33;;
42988;SDS011;28622;43.716;20.668;2022-08-24T07:39:50;5.82;;;2.88;;
42988;SDS011;28622;43.716;20.668;2022-08-24T07:42:15;5.38;;;2.58;;
42988;SDS011;28622;43.716;20.668;2022-08-24T07:44:41;6.38;;;3.15;;
42988;SDS011;28622;43.716;20.668;2022-08-24T07:47:07;5.90;;;3.05;;
42988;SDS011;28622;43.716;20.668;2022-08-24T07:49:33;7.10;;;2.92;;
42988;SDS011;28622;43.716;20.668;2022-08-24T07:51:59;4.57;;;2.53;;
42988;SDS011;28622;43.716;20.668;2022-08-24T07:54:24;3.70;;;2.65;;
42988;SDS011;28622;43.716;20.668;2022-08-24T07:56:52;4.57;;;2.50;;
42988;SDS011;28622;43.716;20.668;2022-08-24T07:59:19;3.17;;;2.03;;
42988;SDS011;28622;43.716;20.668;2022-08-24T08:01:45;4.72;;;2.80;;
42988;SDS011;28622;43.716;20.668;2022-08-24T08:04:11;5.38;;;2.83;;
42988;SDS011;28622;43.716;20.668;2022-08-24T08:06:39;6.60;;;2.40;;
42988;SDS011;28622;43.716;20.668;2022-08-24T08:09:06;4.88;;;2.72;;
42988;SDS011;28622;43.716;20.668;2022-08-24T08:11:31;5.55;;;2.65;;
42988;SDS011;28622;43.716;20.668;2022-08-24T08:13:57;4.18;;;2.38;;
42988;SDS011;28622;43.716;20.668;2022-08-24T08:16:23;5.32;;;2.78;;
42988;SDS011;28622;43.716;20.668;2022-08-24T08:18:50;4.32;;;2.38;;
42988;SDS011;28622;43.716;20.668;2022-08-24T08:21:16;6.22;;;3.13;;
42988;SDS011;28622;43.716;20.668;2022-08-24T08:24:00;5.55;;;2.50;;
42988;SDS011;28622;43.716;20.668;2022-08-24T08:26:45;4.22;;;2.70;;
42988;SDS011;28622;43.716;20.668;2022-08-24T08:29:14;4.28;;;2.40;;
42988;SDS011;28622;43.716;20.668;2022-08-24T08:31:42;3.15;;;2.22;;
42988;SDS011;28622;43.716;20.668;2022-08-24T08:34:08;4.45;;;2.33;;
42988;SDS011;28622;43.716;20.668;2022-08-24T08:36:34;4.82;;;2.78;;
42988;SDS011;28622;43.716;20.668;2022-08-24T08:39:03;8.95;;;2.70;;
42988;SDS011;28622;43.716;20.668;2022-08-24T08:55:13;7.10;;;2.75;;
42988;SDS011;28622;43.716;20.668;2022-08-24T09:12:18;6.85;;;3.10;;
42988;SDS011;28622;43.716;20.668;2022-08-24T09:20:55;7.13;;;2.97;;
42988;SDS011;28622;43.716;20.668;2022-08-24T09:23:24;4.68;;;2.72;;
42988;SDS011;28622;43.716;20.668;2022-08-24T09:26:30;6.43;;;2.63;;
42988;SDS011;28622;43.716;20.668;2022-08-24T09:29:07;4.63;;;2.97;;
42988;SDS011;28622;43.716;20.668;2022-08-24T09:40:00;5.07;;;2.35;;
42988;SDS011;28622;43.716;20.668;2022-08-24T09:42:53;4.50;;;2.92;;
42988;SDS011;28622;43.716;20.668;2022-08-24T09:51:40;7.90;;;3.35;;
42988;SDS011;28622;43.716;20.668;2022-08-24T10:13:31;6.25;;;3.13;;
42988;SDS011;28622;43.716;20.668;2022-08-24T10:16:26;4.63;;;2.92;;
42988;SDS011;28622;43.716;20.668;2022-08-24T10:46:58;4.65;;;2.80;;
42988;SDS011;28622;43.716;20.668;2022-08-24T10:55:11;5.22;;;2.90;;
42988;SDS011;28622;43.716;20.668;2022-08-24T10:57:47;7.18;;;3.15;;
42988;SDS011;28622;43.716;20.668;2022-08-24T11:00:35;5.10;;;2.58;;
42988;SDS011;28622;43.716;20.668;2022-08-24T11:03:11;4.30;;;2.58;;
42988;SDS011;28622;43.716;20.668;2022-08-24T11:05:52;4.97;;;2.80;;
42988;SDS011;28622;43.716;20.668;2022-08-24T11:08:24;4.15;;;2.67;;
42988;SDS011;28622;43.716;20.668;2022-08-24T11:13:53;6.10;;;3.10;;
42988;SDS011;28622;43.716;20.668;2022-08-24T11:16:24;4.97;;;2.60;;
42988;SDS011;28622;43.716;20.668;2022-08-24T11:18:59;8.27;;;3.30;;
42988;SDS011;28622;43.716;20.668;2022-08-24T11:24:04;5.05;;;2.85;;
42988;SDS011;28622;43.716;20.668;2022-08-24T11:26:43;4.25;;;2.40;;
42988;SDS011;28622;43.716;20.668;2022-08-24T11:29:15;6.43;;;3.10;;
42988;SDS011;28622;43.716;20.668;2022-08-24T11:31:42;7.95;;;3.33;;
42988;SDS011;28622;43.716;20.668;2022-08-24T11:34:33;5.10;;;2.78;;
42988;SDS011;28622;43.716;20.668;2022-08-24T11:37:02;6.15;;;2.78;;
42988;SDS011;28622;43.716;20.668;2022-08-24T11:39:31;5.35;;;2.75;;
42988;SDS011;28622;43.716;20.668;2022-08-24T11:44:37;6.15;;;2.90;;
42988;SDS011;28622;43.716;20.668;2022-08-24T11:55:17;9.80;;;4.18;;
42988;SDS011;28622;43.716;20.668;2022-08-24T12:00:17;5.20;;;2.92;;
42988;SDS011;28622;43.716;20.668;2022-08-24T12:19:36;6.10;;;2.47;;
42988;SDS011;28622;43.716;20.668;2022-08-24T12:22:05;4.38;;;2.67;;
42988;SDS011;28622;43.716;20.668;2022-08-24T12:24:46;5.25;;;2.65;;
42988;SDS011;28622;43.716;20.668;2022-08-24T12:27:22;5.57;;;2.40;;
42988;SDS011;28622;43.716;20.668;2022-08-24T12:29:58;4.50;;;2.55;;
42988;SDS011;28622;43.716;20.668;2022-08-24T12:32:44;5.05;;;2.70;;
42988;SDS011;28622;43.716;20.668;2022-08-24T12:35:33;3.80;;;2.15;;
42988;SDS011;28622;43.716;20.668;2022-08-24T12:38:21;3.75;;;2.28;;
42988;SDS011;28622;43.716;20.668;2022-08-24T12:44:00;4.22;;;2.08;;
42988;SDS011;28622;43.716;20.668;2022-08-24T12:46:36;4.35;;;2.75;;
42988;SDS011;28622;43.716;20.668;2022-08-24T12:49:04;5.00;;;2.03;;
42988;SDS011;28622;43.716;20.668;2022-08-24T12:57:13;4.15;;;2.40;;
42988;SDS011;28622;43.716;20.668;2022-08-24T13:00:04;4.43;;;2.30;;
42988;SDS011;28622;43.716;20.668;2022-08-24T13:02:41;3.33;;;1.60;;
42988;SDS011;28622;43.716;20.668;2022-08-24T13:05:16;4.30;;;2.15;;
42988;SDS011;28622;43.716;20.668;2022-08-24T13:07:45;4.53;;;2.10;;
42988;SDS011;28622;43.716;20.668;2022-08-24T13:12:53;3.08;;;1.60;;
42988;SDS011;28622;43.716;20.668;2022-08-24T13:25:51;4.70;;;2.22;;
42988;SDS011;28622;43.716;20.668;2022-08-24T13:30:55;4.63;;;2.55;;
42988;SDS011;28622;43.716;20.668;2022-08-24T13:39:02;3.97;;;2.13;;
42988;SDS011;28622;43.716;20.668;2022-08-24T14:42:11;4.93;;;2.60;;
42988;SDS011;28622;43.716;20.668;2022-08-24T14:50:28;3.40;;;2.35;;
42988;SDS011;28622;43.716;20.668;2022-08-24T14:58:49;3.72;;;2.08;;
42988;SDS011;28622;43.716;20.668;2022-08-24T15:01:38;4.30;;;2.17;;
42988;SDS011;28622;43.716;20.668;2022-08-24T15:07:21;7.63;;;2.47;;
42988;SDS011;28622;43.716;20.668;2022-08-24T15:09:51;4.53;;;2.42;;
42988;SDS011;28622;43.716;20.668;2022-08-24T15:15:11;4.50;;;1.98;;
42988;SDS011;28622;43.716;20.668;2022-08-24T15:17:58;4.18;;;2.30;;
42988;SDS011;28622;43.716;20.668;2022-08-24T15:20:57;4.93;;;2.25;;
42988;SDS011;28622;43.716;20.668;2022-08-24T15:26:51;3.72;;;2.50;;
42988;SDS011;28622;43.716;20.668;2022-08-24T15:29:27;6.35;;;2.70;;
42988;SDS011;28622;43.716;20.668;2022-08-24T15:37:04;4.65;;;1.98;;
42988;SDS011;28622;43.716;20.668;2022-08-24T15:39:30;5.15;;;2.47;;
42988;SDS011;28622;43.716;20.668;2022-08-24T15:41:57;2.85;;;2.20;;
42988;SDS011;28622;43.716;20.668;2022-08-24T15:44:25;5.80;;;2.53;;
42988;SDS011;28622;43.716;20.668;2022-08-24T15:46:55;3.67;;;2.35;;
42988;SDS011;28622;43.716;20.668;2022-08-24T15:49:26;4.82;;;2.00;;
42988;SDS011;28622;43.716;20.668;2022-08-24T15:52:01;6.15;;;2.80;;
42988;SDS011;28622;43.716;20.668;2022-08-24T15:54:43;6.43;;;2.70;;
42988;SDS011;28622;43.716;20.668;2022-08-24T15:59:54;5.00;;;3.17;;
42988;SDS011;28622;43.716;20.668;2022-08-24T16:02:35;6.63;;;3.35;;
42988;SDS011;28622;43.716;20.668;2022-08-24T16:10:30;8.20;;;4.18;;
42988;SDS011;28622;43.716;20.668;2022-08-24T16:13:07;6.55;;;3.60;;
42988;SDS011;28622;43.716;20.668;2022-08-24T16:15:46;6.50;;;3.40;;
42988;SDS011;28622;43.716;20.668;2022-08-24T16:21:22;8.38;;;3.55;;
42988;SDS011;28622;43.716;20.668;2022-08-24T16:24:00;9.10;;;3.67;;
42988;SDS011;28622;43.716;20.668;2022-08-24T16:26:49;9.48;;;3.90;;
42988;SDS011;28622;43.716;20.668;2022-08-24T16:32:20;7.80;;;3.72;;
42988;SDS011;28622;43.716;20.668;2022-08-24T16:34:50;7.88;;;3.95;;
42988;SDS011;28622;43.716;20.668;2022-08-24T16:37:19;8.35;;;3.80;;
42988;SDS011;28622;43.716;20.668;2022-08-24T16:39:46;6.68;;;3.42;;
42988;SDS011;28622;43.716;20.668;2022-08-24T16:42:20;6.13;;;3.28;;
42988;SDS011;28622;43.716;20.668;2022-08-24T16:44:48;6.07;;;4.00;;
42988;SDS011;28622;43.716;20.668;2022-08-24T16:47:15;6.78;;;3.25;;
42988;SDS011;28622;43.716;20.668;2022-08-24T16:49:41;6.32;;;3.15;;
42988;SDS011;28622;43.716;20.668;2022-08-24T16:52:06;7.80;;;3.45;;
42988;SDS011;28622;43.716;20.668;2022-08-24T16:54:32;9.25;;;4.28;;
42988;SDS011;28622;43.716;20.668;2022-08-24T16:56:59;6.80;;;3.85;;
42988;SDS011;28622;43.716;20.668;2022-08-24T16:59:30;10.27;;;3.33;;
42988;SDS011;28622;43.716;20.668;2022-08-24T17:01:58;10.25;;;4.63;;
42988;SDS011;28622;43.716;20.668;2022-08-24T17:04:24;8.60;;;4.35;;
42988;SDS011;28622;43.716;20.668;2022-08-24T17:06:50;8.50;;;3.95;;
42988;SDS011;28622;43.716;20.668;2022-08-24T17:09:18;8.88;;;4.65;;
42988;SDS011;28622;43.716;20.668;2022-08-24T17:11:44;9.63;;;4.05;;
42988;SDS011;28622;43.716;20.668;2022-08-24T17:14:11;9.45;;;4.75;;
42988;SDS011;28622;43.716;20.668;2022-08-24T17:16:37;10.10;;;4.82;;
42988;SDS011;28622;43.716;20.668;2022-08-24T17:19:05;11.70;;;5.80;;
42988;SDS011;28622;43.716;20.668;2022-08-24T17:21:36;10.50;;;5.28;;
42988;SDS011;28622;43.716;20.668;2022-08-24T17:24:03;12.55;;;6.18;;
42988;SDS011;28622;43.716;20.668;2022-08-24T17:26:29;13.05;;;6.15;;
42988;SDS011;28622;43.716;20.668;2022-08-24T17:28:57;12.23;;;6.38;;
42988;SDS011;28622;43.716;20.668;2022-08-24T17:31:25;9.60;;;5.43;;
42988;SDS011;28622;43.716;20.668;2022-08-24T17:33:53;13.75;;;6.15;;
42988;SDS011;28622;43.716;20.668;2022-08-24T17:36:19;14.05;;;6.05;;
42988;SDS011;28622;43.716;20.668;2022-08-24T17:38:47;9.40;;;5.13;;
42988;SDS011;28622;43.716;20.668;2022-08-24T17:41:16;13.60;;;6.25;;
42988;SDS011;28622;43.716;20.668;2022-08-24T17:43:42;13.00;;;6.15;;
42988;SDS011;28622;43.716;20.668;2022-08-24T17:46:10;14.20;;;6.03;;
42988;SDS011;28622;43.716;20.668;2022-08-24T17:48:38;18.02;;;6.95;;
42988;SDS011;28622;43.716;20.668;2022-08-24T17:51:08;16.85;;;7.65;;
42988;SDS011;28622;43.716;20.668;2022-08-24T17:53:34;14.48;;;6.95;;
42988;SDS011;28622;43.716;20.668;2022-08-24T17:56:00;10.40;;;5.28;;
42988;SDS011;28622;43.716;20.668;2022-08-24T17:58:27;11.40;;;5.97;;
42988;SDS011;28622;43.716;20.668;2022-08-24T18:00:53;11.80;;;6.72;;
42988;SDS011;28622;43.716;20.668;2022-08-24T18:03:19;13.73;;;6.60;;
42988;SDS011;28622;43.716;20.668;2022-08-24T18:05:45;13.43;;;6.32;;
42988;SDS011;28622;43.716;20.668;2022-08-24T18:08:11;13.48;;;4.95;;
42988;SDS011;28622;43.716;20.668;2022-08-24T18:10:37;9.82;;;5.93;;
42988;SDS011;28622;43.716;20.668;2022-08-24T18:13:03;11.88;;;6.50;;
42988;SDS011;28622;43.716;20.668;2022-08-24T18:15:30;11.05;;;6.07;;
42988;SDS011;28622;43.716;20.668;2022-08-24T18:17:59;10.80;;;5.53;;
42988;SDS011;28622;43.716;20.668;2022-08-24T18:20:27;11.27;;;6.00;;
42988;SDS011;28622;43.716;20.668;2022-08-24T18:22:58;16.67;;;7.25;;
42988;SDS011;28622;43.716;20.668;2022-08-24T18:25:24;18.35;;;6.75;;
42988;SDS011;28622;43.716;20.668;2022-08-24T18:27:51;17.55;;;7.57;;
42988;SDS011;28622;43.716;20.668;2022-08-24T18:30:21;14.27;;;6.38;;
42988;SDS011;28622;43.716;20.668;2022-08-24T18:32:49;13.07;;;6.03;;
42988;SDS011;28622;43.716;20.668;2022-08-24T18:35:15;9.93;;;4.50;;
42988;SDS011;28622;43.716;20.668;2022-08-24T18:37:41;10.88;;;4.60;;
42988;SDS011;28622;43.716;20.668;2022-08-24T18:40:07;10.50;;;5.22;;
42988;SDS011;28622;43.716;20.668;2022-08-24T18:42:35;7.85;;;4.75;;
42988;SDS011;28622;43.716;20.668;2022-08-24T18:45:02;13.85;;;5.10;;
42988;SDS011;28622;43.716;20.668;2022-08-24T18:47:29;12.45;;;6.80;;
42988;SDS011;28622;43.716;20.668;2022-08-24T18:49:55;15.18;;;7.22;;
42988;SDS011;28622;43.716;20.668;2022-08-24T18:52:21;15.13;;;4.95;;
42988;SDS011;28622;43.716;20.668;2022-08-24T18:54:47;11.05;;;5.72;;
42988;SDS011;28622;43.716;20.668;2022-08-24T18:57:14;9.55;;;5.00;;
42988;SDS011;28622;43.716;20.668;2022-08-24T18:59:41;9.30;;;5.05;;
42988;SDS011;28622;43.716;20.668;2022-08-24T19:04:56;10.00;;;5.40;;
42988;SDS011;28622;43.716;20.668;2022-08-24T19:07:57;10.65;;;5.13;;
42988;SDS011;28622;43.716;20.668;2022-08-24T19:10:24;7.93;;;3.97;;
42988;SDS011;28622;43.716;20.668;2022-08-24T19:12:54;10.93;;;5.07;;
42988;SDS011;28622;43.716;20.668;2022-08-24T19:15:22;8.90;;;4.00;;
42988;SDS011;28622;43.716;20.668;2022-08-24T19:17:48;6.70;;;3.78;;
42988;SDS011;28622;43.716;20.668;2022-08-24T19:20:14;8.77;;;4.57;;
42988;SDS011;28622;43.716;20.668;2022-08-24T19:22:41;11.27;;;4.63;;
42988;SDS011;28622;43.716;20.668;2022-08-24T19:25:21;9.80;;;4.82;;